sensor_id;sensor_type;location;lat;lon;timestamp;P1;durP1;ratioP1;P2;durP2;ratioP2
10333;SDS011;5212;47.892;16.406;2023-07-20T00:01:22;5.20;;;3.53;;
10333;SDS011;5212;47.892;16.406;2023-07-20T00:03:48;5.27;;;4.03;;
10333;SDS011;5212;47.892;16.406;2023-07-20T00:06:19;5.50;;;4.33;;
10333;SDS011;5212;47.892;16.406;2023-07-20T00:08:46;4.30;;;3.90;;
10333;SDS011;5212;47.892;16.406;2023-07-20T00:11:12;4.50;;;3.93;;
10333;SDS011;5212;47.892;16.406;2023-07-20T00:13:38;4.30;;;3.90;;
10333;SDS011;5212;47.892;16.406;2023-07-20T00:16:05;5.33;;;4.50;;
10333;SDS011;5212;47.892;16.406;2023-07-20T00:18:31;4.97;;;4.50;;
10333;SDS011;5212;47.892;16.406;2023-07-20T00:20:57;5.20;;;4.53;;
10333;SDS011;5212;47.892;16.406;2023-07-20T00:23:25;4.93;;;4.10;;
10333;SDS011;5212;47.892;16.406;2023-07-20T00:25:51;4.40;;;4.00;;
10333;SDS011;5212;47.892;16.406;2023-07-20T00:28:18;4.33;;;3.93;;
10333;SDS011;5212;47.892;16.406;2023-07-20T00:30:44;4.73;;;3.80;;
10333;SDS011;5212;47.892;16.406;2023-07-20T00:33:10;5.20;;;3.80;;
10333;SDS011;5212;47.892;16.406;2023-07-20T00:35:36;4.20;;;3.80;;
10333;SDS011;5212;47.892;16.406;2023-07-20T00:38:03;3.77;;;3.47;;
10333;SDS011;5212;47.892;16.406;2023-07-20T00:40:35;4.20;;;3.80;;
10333;SDS011;5212;47.892;16.406;2023-07-20T00:43:02;4.13;;;3.73;;
10333;SDS011;5212;47.892;16.406;2023-07-20T00:45:28;4.83;;;4.30;;
10333;SDS011;5212;47.892;16.406;2023-07-20T00:47:55;5.77;;;5.03;;
10333;SDS011;5212;47.892;16.406;2023-07-20T00:50:21;6.93;;;5.30;;
10333;SDS011;5212;47.892;16.406;2023-07-20T00:52:47;5.83;;;5.03;;
10333;SDS011;5212;47.892;16.406;2023-07-20T00:55:14;5.37;;;4.80;;
10333;SDS011;5212;47.892;16.406;2023-07-20T00:57:40;5.57;;;4.73;;
10333;SDS011;5212;47.892;16.406;2023-07-20T01:00:08;8.23;;;5.10;;
10333;SDS011;5212;47.892;16.406;2023-07-20T01:02:34;5.37;;;4.57;;
10333;SDS011;5212;47.892;16.406;2023-07-20T01:05:00;6.37;;;4.47;;
10333;SDS011;5212;47.892;16.406;2023-07-20T01:07:26;5.27;;;4.60;;
10333;SDS011;5212;47.892;16.406;2023-07-20T01:09:58;5.60;;;4.73;;
10333;SDS011;5212;47.892;16.406;2023-07-20T01:12:27;4.90;;;4.40;;
10333;SDS011;5212;47.892;16.406;2023-07-20T01:14:57;5.60;;;4.80;;
10333;SDS011;5212;47.892;16.406;2023-07-20T01:17:24;6.20;;;4.60;;
10333;SDS011;5212;47.892;16.406;2023-07-20T01:19:50;7.33;;;4.30;;
10333;SDS011;5212;47.892;16.406;2023-07-20T01:22:21;6.87;;;4.57;;
10333;SDS011;5212;47.892;16.406;2023-07-20T01:25:12;4.73;;;4.23;;
10333;SDS011;5212;47.892;16.406;2023-07-20T01:30:51;5.23;;;4.73;;
10333;SDS011;5212;47.892;16.406;2023-07-20T01:33:21;6.17;;;5.17;;
10333;SDS011;5212;47.892;16.406;2023-07-20T01:35:52;5.80;;;4.83;;
10333;SDS011;5212;47.892;16.406;2023-07-20T01:38:18;6.47;;;4.70;;
10333;SDS011;5212;47.892;16.406;2023-07-20T01:40:45;6.33;;;5.20;;
10333;SDS011;5212;47.892;16.406;2023-07-20T01:43:11;6.97;;;5.30;;
10333;SDS011;5212;47.892;16.406;2023-07-20T01:45:37;5.93;;;5.33;;
10333;SDS011;5212;47.892;16.406;2023-07-20T01:48:04;5.70;;;5.10;;
10333;SDS011;5212;47.892;16.406;2023-07-20T01:50:31;6.00;;;5.00;;
10333;SDS011;5212;47.892;16.406;2023-07-20T01:52:59;5.87;;;4.83;;
10333;SDS011;5212;47.892;16.406;2023-07-20T01:55:25;6.27;;;5.10;;
10333;SDS011;5212;47.892;16.406;2023-07-20T01:57:51;7.17;;;5.17;;
10333;SDS011;5212;47.892;16.406;2023-07-20T02:00:17;5.13;;;4.63;;
10333;SDS011;5212;47.892;16.406;2023-07-20T02:02:46;6.73;;;5.03;;
10333;SDS011;5212;47.892;16.406;2023-07-20T02:05:12;5.30;;;4.80;;
10333;SDS011;5212;47.892;16.406;2023-07-20T02:07:39;6.03;;;4.63;;
10333;SDS011;5212;47.892;16.406;2023-07-20T02:10:05;5.53;;;4.80;;
10333;SDS011;5212;47.892;16.406;2023-07-20T02:12:32;7.43;;;5.10;;
10333;SDS011;5212;47.892;16.406;2023-07-20T02:14:58;5.27;;;4.73;;
10333;SDS011;5212;47.892;16.406;2023-07-20T02:17:24;7.07;;;4.40;;
10333;SDS011;5212;47.892;16.406;2023-07-20T02:19:50;5.80;;;4.50;;
10333;SDS011;5212;47.892;16.406;2023-07-20T02:22:17;5.20;;;4.30;;
10333;SDS011;5212;47.892;16.406;2023-07-20T02:24:44;5.70;;;4.60;;
10333;SDS011;5212;47.892;16.406;2023-07-20T02:27:10;6.00;;;4.30;;
10333;SDS011;5212;47.892;16.406;2023-07-20T02:29:36;4.90;;;4.07;;
10333;SDS011;5212;47.892;16.406;2023-07-20T02:32:02;4.77;;;4.07;;
10333;SDS011;5212;47.892;16.406;2023-07-20T02:34:28;5.03;;;4.33;;
10333;SDS011;5212;47.892;16.406;2023-07-20T02:36:54;5.13;;;4.30;;
10333;SDS011;5212;47.892;16.406;2023-07-20T02:39:21;4.93;;;4.30;;
10333;SDS011;5212;47.892;16.406;2023-07-20T02:41:53;6.50;;;4.50;;
10333;SDS011;5212;47.892;16.406;2023-07-20T02:44:19;5.17;;;4.60;;
10333;SDS011;5212;47.892;16.406;2023-07-20T02:46:45;7.00;;;4.50;;
10333;SDS011;5212;47.892;16.406;2023-07-20T02:49:11;4.97;;;4.47;;
10333;SDS011;5212;47.892;16.406;2023-07-20T02:51:37;5.37;;;3.90;;
10333;SDS011;5212;47.892;16.406;2023-07-20T02:54:03;4.20;;;3.77;;
10333;SDS011;5212;47.892;16.406;2023-07-20T02:56:29;4.63;;;3.90;;
10333;SDS011;5212;47.892;16.406;2023-07-20T02:58:56;7.37;;;4.20;;
10333;SDS011;5212;47.892;16.406;2023-07-20T03:01:22;6.80;;;4.40;;
10333;SDS011;5212;47.892;16.406;2023-07-20T03:03:48;6.20;;;4.00;;
10333;SDS011;5212;47.892;16.406;2023-07-20T03:06:15;4.47;;;3.60;;
10333;SDS011;5212;47.892;16.406;2023-07-20T03:08:41;4.57;;;3.73;;
10333;SDS011;5212;47.892;16.406;2023-07-20T03:11:12;4.17;;;3.67;;
10333;SDS011;5212;47.892;16.406;2023-07-20T03:13:38;4.70;;;4.20;;
10333;SDS011;5212;47.892;16.406;2023-07-20T03:16:05;4.33;;;3.83;;
10333;SDS011;5212;47.892;16.406;2023-07-20T03:18:36;5.97;;;3.77;;
10333;SDS011;5212;47.892;16.406;2023-07-20T03:21:02;4.17;;;3.77;;
10333;SDS011;5212;47.892;16.406;2023-07-20T03:23:28;5.90;;;4.00;;
10333;SDS011;5212;47.892;16.406;2023-07-20T03:25:54;7.27;;;4.37;;
10333;SDS011;5212;47.892;16.406;2023-07-20T03:28:20;5.23;;;4.30;;
10333;SDS011;5212;47.892;16.406;2023-07-20T03:30:46;5.83;;;3.90;;
10333;SDS011;5212;47.892;16.406;2023-07-20T03:33:13;4.23;;;3.80;;
10333;SDS011;5212;47.892;16.406;2023-07-20T03:35:38;6.30;;;4.30;;
10333;SDS011;5212;47.892;16.406;2023-07-20T03:38:04;5.47;;;3.90;;
10333;SDS011;5212;47.892;16.406;2023-07-20T03:40:30;6.60;;;4.20;;
10333;SDS011;5212;47.892;16.406;2023-07-20T03:42:56;3.80;;;3.40;;
10333;SDS011;5212;47.892;16.406;2023-07-20T03:45:22;3.70;;;3.30;;
10333;SDS011;5212;47.892;16.406;2023-07-20T03:47:49;4.57;;;3.73;;
10333;SDS011;5212;47.892;16.406;2023-07-20T03:50:15;3.73;;;3.43;;
10333;SDS011;5212;47.892;16.406;2023-07-20T03:52:41;4.60;;;3.53;;
10333;SDS011;5212;47.892;16.406;2023-07-20T03:55:08;4.80;;;3.90;;
10333;SDS011;5212;47.892;16.406;2023-07-20T03:57:34;5.73;;;3.80;;
10333;SDS011;5212;47.892;16.406;2023-07-20T04:00:00;4.63;;;3.93;;
10333;SDS011;5212;47.892;16.406;2023-07-20T04:02:26;4.17;;;3.67;;
10333;SDS011;5212;47.892;16.406;2023-07-20T04:04:52;4.40;;;3.80;;
10333;SDS011;5212;47.892;16.406;2023-07-20T04:07:19;4.57;;;3.37;;
10333;SDS011;5212;47.892;16.406;2023-07-20T04:09:45;4.70;;;3.50;;
10333;SDS011;5212;47.892;16.406;2023-07-20T04:12:11;4.73;;;3.40;;
10333;SDS011;5212;47.892;16.406;2023-07-20T04:14:37;4.97;;;3.80;;
10333;SDS011;5212;47.892;16.406;2023-07-20T04:17:03;4.80;;;3.67;;
10333;SDS011;5212;47.892;16.406;2023-07-20T04:19:30;4.07;;;3.67;;
10333;SDS011;5212;47.892;16.406;2023-07-20T04:21:56;4.30;;;3.70;;
10333;SDS011;5212;47.892;16.406;2023-07-20T04:24:23;4.00;;;3.60;;
10333;SDS011;5212;47.892;16.406;2023-07-20T04:26:49;4.73;;;3.73;;
10333;SDS011;5212;47.892;16.406;2023-07-20T04:29:15;4.03;;;3.57;;
10333;SDS011;5212;47.892;16.406;2023-07-20T04:31:40;4.50;;;3.70;;
10333;SDS011;5212;47.892;16.406;2023-07-20T04:34:06;3.87;;;3.47;;
10333;SDS011;5212;47.892;16.406;2023-07-20T04:36:32;3.97;;;3.57;;
10333;SDS011;5212;47.892;16.406;2023-07-20T04:38:58;4.20;;;3.47;;
10333;SDS011;5212;47.892;16.406;2023-07-20T04:41:25;5.77;;;3.80;;
10333;SDS011;5212;47.892;16.406;2023-07-20T04:43:51;3.70;;;3.37;;
10333;SDS011;5212;47.892;16.406;2023-07-20T04:46:17;4.27;;;3.87;;
10333;SDS011;5212;47.892;16.406;2023-07-20T04:48:44;5.80;;;3.80;;
10333;SDS011;5212;47.892;16.406;2023-07-20T04:51:10;5.03;;;3.57;;
10333;SDS011;5212;47.892;16.406;2023-07-20T04:53:36;3.83;;;3.33;;
10333;SDS011;5212;47.892;16.406;2023-07-20T04:56:02;4.27;;;3.87;;
10333;SDS011;5212;47.892;16.406;2023-07-20T04:58:29;4.23;;;3.47;;
10333;SDS011;5212;47.892;16.406;2023-07-20T05:00:55;3.63;;;3.00;;
10333;SDS011;5212;47.892;16.406;2023-07-20T05:03:21;4.00;;;3.60;;
10333;SDS011;5212;47.892;16.406;2023-07-20T05:05:47;4.03;;;3.40;;
10333;SDS011;5212;47.892;16.406;2023-07-20T05:08:13;4.00;;;3.60;;
10333;SDS011;5212;47.892;16.406;2023-07-20T05:10:39;3.67;;;3.27;;
10333;SDS011;5212;47.892;16.406;2023-07-20T05:13:05;3.53;;;3.07;;
10333;SDS011;5212;47.892;16.406;2023-07-20T05:15:33;4.40;;;3.37;;
10333;SDS011;5212;47.892;16.406;2023-07-20T05:17:59;3.67;;;3.37;;
10333;SDS011;5212;47.892;16.406;2023-07-20T05:20:25;3.53;;;2.93;;
10333;SDS011;5212;47.892;16.406;2023-07-20T05:22:52;3.77;;;3.00;;
10333;SDS011;5212;47.892;16.406;2023-07-20T05:25:18;5.97;;;3.20;;
10333;SDS011;5212;47.892;16.406;2023-07-20T05:27:44;3.13;;;2.83;;
10333;SDS011;5212;47.892;16.406;2023-07-20T05:30:11;3.83;;;2.70;;
10333;SDS011;5212;47.892;16.406;2023-07-20T05:32:38;3.43;;;2.87;;
10333;SDS011;5212;47.892;16.406;2023-07-20T05:35:04;3.70;;;3.00;;
10333;SDS011;5212;47.892;16.406;2023-07-20T05:37:30;4.30;;;3.57;;
10333;SDS011;5212;47.892;16.406;2023-07-20T05:39:57;3.10;;;2.80;;
10333;SDS011;5212;47.892;16.406;2023-07-20T05:42:23;3.33;;;2.90;;
10333;SDS011;5212;47.892;16.406;2023-07-20T05:44:49;4.10;;;3.20;;
10333;SDS011;5212;47.892;16.406;2023-07-20T05:47:17;3.57;;;3.27;;
10333;SDS011;5212;47.892;16.406;2023-07-20T05:49:44;3.83;;;3.43;;
10333;SDS011;5212;47.892;16.406;2023-07-20T05:52:10;3.87;;;3.10;;
10333;SDS011;5212;47.892;16.406;2023-07-20T05:54:36;4.33;;;2.90;;
10333;SDS011;5212;47.892;16.406;2023-07-20T05:57:03;3.30;;;3.00;;
10333;SDS011;5212;47.892;16.406;2023-07-20T05:59:30;3.90;;;3.37;;
10333;SDS011;5212;47.892;16.406;2023-07-20T06:01:56;3.50;;;3.10;;
10333;SDS011;5212;47.892;16.406;2023-07-20T06:04:22;3.70;;;3.30;;
10333;SDS011;5212;47.892;16.406;2023-07-20T06:06:49;6.77;;;3.60;;
10333;SDS011;5212;47.892;16.406;2023-07-20T06:09:15;4.30;;;3.40;;
10333;SDS011;5212;47.892;16.406;2023-07-20T06:11:41;4.10;;;3.50;;
10333;SDS011;5212;47.892;16.406;2023-07-20T06:14:07;4.00;;;3.40;;
10333;SDS011;5212;47.892;16.406;2023-07-20T06:16:33;7.40;;;3.90;;
10333;SDS011;5212;47.892;16.406;2023-07-20T06:18:59;7.10;;;3.70;;
10333;SDS011;5212;47.892;16.406;2023-07-20T06:21:26;5.40;;;3.33;;
10333;SDS011;5212;47.892;16.406;2023-07-20T06:23:52;5.10;;;3.00;;
10333;SDS011;5212;47.892;16.406;2023-07-20T06:26:18;4.13;;;3.33;;
10333;SDS011;5212;47.892;16.406;2023-07-20T06:28:46;4.60;;;3.23;;
10333;SDS011;5212;47.892;16.406;2023-07-20T06:31:12;4.33;;;3.07;;
10333;SDS011;5212;47.892;16.406;2023-07-20T06:33:38;4.63;;;3.70;;
10333;SDS011;5212;47.892;16.406;2023-07-20T06:36:04;3.87;;;3.40;;
10333;SDS011;5212;47.892;16.406;2023-07-20T06:38:30;4.17;;;3.33;;
10333;SDS011;5212;47.892;16.406;2023-07-20T06:40:56;4.53;;;3.60;;
10333;SDS011;5212;47.892;16.406;2023-07-20T06:43:22;4.20;;;3.33;;
10333;SDS011;5212;47.892;16.406;2023-07-20T06:45:51;3.60;;;3.30;;
10333;SDS011;5212;47.892;16.406;2023-07-20T06:48:18;3.80;;;3.50;;
10333;SDS011;5212;47.892;16.406;2023-07-20T06:50:44;6.17;;;3.33;;
10333;SDS011;5212;47.892;16.406;2023-07-20T06:53:10;3.50;;;3.00;;
10333;SDS011;5212;47.892;16.406;2023-07-20T06:55:36;4.20;;;3.47;;
10333;SDS011;5212;47.892;16.406;2023-07-20T06:58:02;6.23;;;3.77;;
10333;SDS011;5212;47.892;16.406;2023-07-20T07:00:28;4.03;;;3.33;;
10333;SDS011;5212;47.892;16.406;2023-07-20T07:02:54;5.23;;;3.40;;
10333;SDS011;5212;47.892;16.406;2023-07-20T07:05:20;4.50;;;3.30;;
10333;SDS011;5212;47.892;16.406;2023-07-20T07:07:46;5.37;;;3.33;;
10333;SDS011;5212;47.892;16.406;2023-07-20T07:10:12;3.80;;;3.10;;
10333;SDS011;5212;47.892;16.406;2023-07-20T07:12:39;3.13;;;2.80;;
10333;SDS011;5212;47.892;16.406;2023-07-20T07:15:06;3.50;;;3.20;;
10333;SDS011;5212;47.892;16.406;2023-07-20T07:17:32;5.70;;;3.27;;
10333;SDS011;5212;47.892;16.406;2023-07-20T07:19:58;4.13;;;3.47;;
10333;SDS011;5212;47.892;16.406;2023-07-20T07:22:24;3.70;;;3.00;;
10333;SDS011;5212;47.892;16.406;2023-07-20T07:24:51;3.27;;;2.93;;
10333;SDS011;5212;47.892;16.406;2023-07-20T07:27:17;4.10;;;3.17;;
10333;SDS011;5212;47.892;16.406;2023-07-20T07:29:43;4.03;;;3.10;;
10333;SDS011;5212;47.892;16.406;2023-07-20T07:32:10;4.50;;;3.33;;
10333;SDS011;5212;47.892;16.406;2023-07-20T07:34:36;4.27;;;3.20;;
10333;SDS011;5212;47.892;16.406;2023-07-20T07:37:02;3.93;;;3.10;;
10333;SDS011;5212;47.892;16.406;2023-07-20T07:39:29;5.97;;;3.50;;
10333;SDS011;5212;47.892;16.406;2023-07-20T07:41:55;4.17;;;3.50;;
10333;SDS011;5212;47.892;16.406;2023-07-20T07:44:21;4.80;;;2.97;;
10333;SDS011;5212;47.892;16.406;2023-07-20T07:46:47;5.20;;;3.10;;
10333;SDS011;5212;47.892;16.406;2023-07-20T07:49:14;3.67;;;3.00;;
10333;SDS011;5212;47.892;16.406;2023-07-20T07:51:40;5.53;;;3.47;;
10333;SDS011;5212;47.892;16.406;2023-07-20T07:54:06;4.33;;;3.00;;
10333;SDS011;5212;47.892;16.406;2023-07-20T07:56:32;3.93;;;3.20;;
10333;SDS011;5212;47.892;16.406;2023-07-20T07:58:58;11.40;;;3.00;;
10333;SDS011;5212;47.892;16.406;2023-07-20T08:01:24;3.43;;;2.83;;
10333;SDS011;5212;47.892;16.406;2023-07-20T08:03:50;5.40;;;3.40;;
10333;SDS011;5212;47.892;16.406;2023-07-20T08:06:17;5.63;;;2.90;;
10333;SDS011;5212;47.892;16.406;2023-07-20T08:08:43;4.47;;;2.90;;
10333;SDS011;5212;47.892;16.406;2023-07-20T08:11:09;3.20;;;2.70;;
10333;SDS011;5212;47.892;16.406;2023-07-20T08:13:36;7.20;;;3.20;;
10333;SDS011;5212;47.892;16.406;2023-07-20T08:16:02;3.30;;;2.60;;
10333;SDS011;5212;47.892;16.406;2023-07-20T08:18:28;3.73;;;2.67;;
10333;SDS011;5212;47.892;16.406;2023-07-20T08:20:54;3.83;;;2.87;;
10333;SDS011;5212;47.892;16.406;2023-07-20T08:23:21;6.80;;;3.00;;
10333;SDS011;5212;47.892;16.406;2023-07-20T08:25:47;5.80;;;3.00;;
10333;SDS011;5212;47.892;16.406;2023-07-20T08:28:13;4.23;;;2.67;;
10333;SDS011;5212;47.892;16.406;2023-07-20T08:30:41;3.90;;;2.60;;
10333;SDS011;5212;47.892;16.406;2023-07-20T08:33:09;5.43;;;3.00;;
10333;SDS011;5212;47.892;16.406;2023-07-20T08:35:35;3.37;;;2.90;;
10333;SDS011;5212;47.892;16.406;2023-07-20T08:38:01;5.43;;;2.93;;
10333;SDS011;5212;47.892;16.406;2023-07-20T08:40:28;3.13;;;2.67;;
10333;SDS011;5212;47.892;16.406;2023-07-20T08:42:55;3.27;;;2.57;;
10333;SDS011;5212;47.892;16.406;2023-07-20T08:45:22;3.57;;;2.43;;
10333;SDS011;5212;47.892;16.406;2023-07-20T08:47:48;4.70;;;2.60;;
10333;SDS011;5212;47.892;16.406;2023-07-20T08:50:14;2.50;;;2.30;;
10333;SDS011;5212;47.892;16.406;2023-07-20T08:52:42;4.20;;;2.60;;
10333;SDS011;5212;47.892;16.406;2023-07-20T08:55:08;4.80;;;2.40;;
10333;SDS011;5212;47.892;16.406;2023-07-20T08:57:35;4.40;;;2.17;;
10333;SDS011;5212;47.892;16.406;2023-07-20T09:00:02;3.70;;;2.20;;
10333;SDS011;5212;47.892;16.406;2023-07-20T09:02:30;4.07;;;2.40;;
10333;SDS011;5212;47.892;16.406;2023-07-20T09:04:59;4.47;;;2.27;;
10333;SDS011;5212;47.892;16.406;2023-07-20T09:07:25;4.67;;;2.37;;
10333;SDS011;5212;47.892;16.406;2023-07-20T09:09:51;3.07;;;2.40;;
10333;SDS011;5212;47.892;16.406;2023-07-20T09:12:17;4.07;;;2.27;;
10333;SDS011;5212;47.892;16.406;2023-07-20T09:14:44;4.07;;;2.50;;
10333;SDS011;5212;47.892;16.406;2023-07-20T09:17:12;4.50;;;2.57;;
10333;SDS011;5212;47.892;16.406;2023-07-20T09:19:38;3.33;;;2.50;;
10333;SDS011;5212;47.892;16.406;2023-07-20T09:22:05;3.40;;;2.37;;
10333;SDS011;5212;47.892;16.406;2023-07-20T09:24:31;5.20;;;2.50;;
10333;SDS011;5212;47.892;16.406;2023-07-20T09:26:57;3.00;;;2.10;;
10333;SDS011;5212;47.892;16.406;2023-07-20T09:29:28;2.97;;;2.10;;
10333;SDS011;5212;47.892;16.406;2023-07-20T09:31:59;4.77;;;2.20;;
10333;SDS011;5212;47.892;16.406;2023-07-20T09:34:26;4.90;;;2.40;;
10333;SDS011;5212;47.892;16.406;2023-07-20T09:36:52;3.20;;;2.20;;
10333;SDS011;5212;47.892;16.406;2023-07-20T09:39:18;2.40;;;2.03;;
10333;SDS011;5212;47.892;16.406;2023-07-20T09:41:44;1.80;;;1.70;;
10333;SDS011;5212;47.892;16.406;2023-07-20T09:44:10;3.73;;;2.10;;
10333;SDS011;5212;47.892;16.406;2023-07-20T09:46:43;2.87;;;1.87;;
10333;SDS011;5212;47.892;16.406;2023-07-20T09:49:11;1.97;;;1.70;;
10333;SDS011;5212;47.892;16.406;2023-07-20T09:51:37;2.47;;;2.00;;
10333;SDS011;5212;47.892;16.406;2023-07-20T09:54:03;2.20;;;1.93;;
10333;SDS011;5212;47.892;16.406;2023-07-20T09:56:29;3.20;;;1.87;;
10333;SDS011;5212;47.892;16.406;2023-07-20T09:58:56;3.33;;;1.70;;
10333;SDS011;5212;47.892;16.406;2023-07-20T10:01:22;2.67;;;2.00;;
10333;SDS011;5212;47.892;16.406;2023-07-20T10:03:49;2.63;;;1.70;;
10333;SDS011;5212;47.892;16.406;2023-07-20T10:06:19;3.77;;;2.03;;
10333;SDS011;5212;47.892;16.406;2023-07-20T10:08:46;2.40;;;1.60;;
10333;SDS011;5212;47.892;16.406;2023-07-20T10:11:13;2.30;;;1.90;;
10333;SDS011;5212;47.892;16.406;2023-07-20T10:13:41;5.40;;;2.07;;
10333;SDS011;5212;47.892;16.406;2023-07-20T10:16:10;2.27;;;2.00;;
10333;SDS011;5212;47.892;16.406;2023-07-20T10:18:38;2.80;;;1.60;;
10333;SDS011;5212;47.892;16.406;2023-07-20T10:21:07;2.80;;;1.70;;
10333;SDS011;5212;47.892;16.406;2023-07-20T10:23:36;3.93;;;1.70;;
10333;SDS011;5212;47.892;16.406;2023-07-20T10:26:02;3.20;;;1.80;;
10333;SDS011;5212;47.892;16.406;2023-07-20T10:28:28;4.40;;;1.67;;
10333;SDS011;5212;47.892;16.406;2023-07-20T10:30:54;1.90;;;1.53;;
10333;SDS011;5212;47.892;16.406;2023-07-20T10:33:20;1.90;;;1.70;;
10333;SDS011;5212;47.892;16.406;2023-07-20T10:35:50;4.30;;;1.77;;
10333;SDS011;5212;47.892;16.406;2023-07-20T10:38:16;2.90;;;1.90;;
10333;SDS011;5212;47.892;16.406;2023-07-20T10:40:43;4.20;;;1.87;;
10333;SDS011;5212;47.892;16.406;2023-07-20T10:43:19;3.50;;;1.97;;
10333;SDS011;5212;47.892;16.406;2023-07-20T10:45:48;4.37;;;2.10;;
10333;SDS011;5212;47.892;16.406;2023-07-20T10:48:15;2.13;;;1.93;;
10333;SDS011;5212;47.892;16.406;2023-07-20T10:50:42;2.10;;;1.90;;
10333;SDS011;5212;47.892;16.406;2023-07-20T10:53:12;3.37;;;2.00;;
10333;SDS011;5212;47.892;16.406;2023-07-20T10:55:40;3.30;;;2.00;;
10333;SDS011;5212;47.892;16.406;2023-07-20T10:58:08;2.67;;;2.10;;
10333;SDS011;5212;47.892;16.406;2023-07-20T11:00:35;2.37;;;1.77;;
10333;SDS011;5212;47.892;16.406;2023-07-20T11:03:01;2.60;;;1.90;;
10333;SDS011;5212;47.892;16.406;2023-07-20T11:05:32;2.83;;;2.10;;
10333;SDS011;5212;47.892;16.406;2023-07-20T11:07:58;2.33;;;2.13;;
10333;SDS011;5212;47.892;16.406;2023-07-20T11:10:24;3.30;;;2.00;;
10333;SDS011;5212;47.892;16.406;2023-07-20T11:15:47;2.70;;;1.80;;
10333;SDS011;5212;47.892;16.406;2023-07-20T11:18:17;2.67;;;2.03;;
10333;SDS011;5212;47.892;16.406;2023-07-20T11:20:44;2.77;;;2.00;;
10333;SDS011;5212;47.892;16.406;2023-07-20T11:23:15;2.67;;;1.80;;
10333;SDS011;5212;47.892;16.406;2023-07-20T11:25:42;6.80;;;2.47;;
10333;SDS011;5212;47.892;16.406;2023-07-20T11:28:08;5.13;;;2.10;;
10333;SDS011;5212;47.892;16.406;2023-07-20T11:30:36;3.30;;;1.90;;
10333;SDS011;5212;47.892;16.406;2023-07-20T11:33:02;3.17;;;1.73;;
10333;SDS011;5212;47.892;16.406;2023-07-20T11:35:29;3.87;;;1.80;;
10333;SDS011;5212;47.892;16.406;2023-07-20T11:37:55;2.87;;;1.83;;
10333;SDS011;5212;47.892;16.406;2023-07-20T11:40:21;1.63;;;1.47;;
10333;SDS011;5212;47.892;16.406;2023-07-20T11:42:47;5.67;;;1.50;;
10333;SDS011;5212;47.892;16.406;2023-07-20T11:45:15;3.40;;;1.60;;
10333;SDS011;5212;47.892;16.406;2023-07-20T11:47:42;1.97;;;1.23;;
10333;SDS011;5212;47.892;16.406;2023-07-20T11:50:08;2.73;;;1.40;;
10333;SDS011;5212;47.892;16.406;2023-07-20T11:52:36;3.27;;;1.70;;
10333;SDS011;5212;47.892;16.406;2023-07-20T11:55:02;2.43;;;1.60;;
10333;SDS011;5212;47.892;16.406;2023-07-20T11:57:30;2.17;;;1.70;;
10333;SDS011;5212;47.892;16.406;2023-07-20T11:59:56;2.70;;;1.50;;
10333;SDS011;5212;47.892;16.406;2023-07-20T12:02:22;2.07;;;1.80;;
10333;SDS011;5212;47.892;16.406;2023-07-20T12:04:50;3.27;;;1.57;;
10333;SDS011;5212;47.892;16.406;2023-07-20T12:07:17;3.33;;;1.50;;
10333;SDS011;5212;47.892;16.406;2023-07-20T12:09:43;2.63;;;1.80;;
10333;SDS011;5212;47.892;16.406;2023-07-20T12:12:10;3.30;;;1.70;;
10333;SDS011;5212;47.892;16.406;2023-07-20T12:14:37;3.40;;;1.50;;
10333;SDS011;5212;47.892;16.406;2023-07-20T12:17:03;2.53;;;1.60;;
10333;SDS011;5212;47.892;16.406;2023-07-20T12:19:29;1.93;;;1.70;;
10333;SDS011;5212;47.892;16.406;2023-07-20T12:21:57;1.97;;;1.77;;
10333;SDS011;5212;47.892;16.406;2023-07-20T12:24:24;3.07;;;1.60;;
10333;SDS011;5212;47.892;16.406;2023-07-20T12:26:55;5.70;;;1.87;;
10333;SDS011;5212;47.892;16.406;2023-07-20T12:29:21;2.57;;;1.80;;
10333;SDS011;5212;47.892;16.406;2023-07-20T12:31:47;3.30;;;1.70;;
10333;SDS011;5212;47.892;16.406;2023-07-20T12:34:13;2.30;;;1.80;;
10333;SDS011;5212;47.892;16.406;2023-07-20T12:36:40;3.73;;;2.03;;
10333;SDS011;5212;47.892;16.406;2023-07-20T12:39:06;3.67;;;1.93;;
10333;SDS011;5212;47.892;16.406;2023-07-20T12:41:32;2.50;;;1.80;;
10333;SDS011;5212;47.892;16.406;2023-07-20T12:43:58;2.27;;;1.80;;
10333;SDS011;5212;47.892;16.406;2023-07-20T12:46:25;2.40;;;1.67;;
10333;SDS011;5212;47.892;16.406;2023-07-20T12:48:53;3.43;;;1.60;;
10333;SDS011;5212;47.892;16.406;2023-07-20T12:51:19;2.83;;;1.70;;
10333;SDS011;5212;47.892;16.406;2023-07-20T12:53:45;1.73;;;1.60;;
10333;SDS011;5212;47.892;16.406;2023-07-20T12:56:11;4.53;;;1.90;;
10333;SDS011;5212;47.892;16.406;2023-07-20T12:58:38;5.67;;;2.00;;
10333;SDS011;5212;47.892;16.406;2023-07-20T13:01:04;3.37;;;1.90;;
10333;SDS011;5212;47.892;16.406;2023-07-20T13:03:30;1.87;;;1.67;;
10333;SDS011;5212;47.892;16.406;2023-07-20T13:05:56;3.13;;;1.73;;
10333;SDS011;5212;47.892;16.406;2023-07-20T13:08:23;2.77;;;1.67;;
10333;SDS011;5212;47.892;16.406;2023-07-20T13:10:50;2.90;;;1.73;;
10333;SDS011;5212;47.892;16.406;2023-07-20T13:13:17;3.47;;;2.03;;
10333;SDS011;5212;47.892;16.406;2023-07-20T13:15:44;2.13;;;1.50;;
10333;SDS011;5212;47.892;16.406;2023-07-20T13:18:11;2.60;;;1.60;;
10333;SDS011;5212;47.892;16.406;2023-07-20T13:20:38;3.57;;;1.80;;
10333;SDS011;5212;47.892;16.406;2023-07-20T13:23:04;3.73;;;1.87;;
10333;SDS011;5212;47.892;16.406;2023-07-20T13:25:30;3.37;;;1.90;;
10333;SDS011;5212;47.892;16.406;2023-07-20T13:27:56;2.07;;;1.50;;
10333;SDS011;5212;47.892;16.406;2023-07-20T13:30:22;2.53;;;2.07;;
10333;SDS011;5212;47.892;16.406;2023-07-20T13:32:48;4.30;;;2.00;;
10333;SDS011;5212;47.892;16.406;2023-07-20T13:35:14;2.27;;;1.70;;
10333;SDS011;5212;47.892;16.406;2023-07-20T13:37:40;3.40;;;1.90;;
10333;SDS011;5212;47.892;16.406;2023-07-20T13:40:07;4.07;;;1.90;;
10333;SDS011;5212;47.892;16.406;2023-07-20T13:42:37;2.57;;;1.70;;
10333;SDS011;5212;47.892;16.406;2023-07-20T13:45:03;4.30;;;1.80;;
10333;SDS011;5212;47.892;16.406;2023-07-20T13:47:30;2.70;;;2.10;;
10333;SDS011;5212;47.892;16.406;2023-07-20T13:49:56;2.30;;;1.70;;
10333;SDS011;5212;47.892;16.406;2023-07-20T13:52:22;5.23;;;1.63;;
10333;SDS011;5212;47.892;16.406;2023-07-20T13:54:48;2.30;;;1.67;;
10333;SDS011;5212;47.892;16.406;2023-07-20T13:57:14;2.33;;;1.60;;
10333;SDS011;5212;47.892;16.406;2023-07-20T13:59:41;2.77;;;1.90;;
10333;SDS011;5212;47.892;16.406;2023-07-20T14:02:07;3.37;;;2.10;;
10333;SDS011;5212;47.892;16.406;2023-07-20T14:04:33;3.93;;;2.20;;
10333;SDS011;5212;47.892;16.406;2023-07-20T14:06:59;2.50;;;1.87;;
10333;SDS011;5212;47.892;16.406;2023-07-20T14:09:25;2.73;;;1.80;;
10333;SDS011;5212;47.892;16.406;2023-07-20T14:11:51;4.97;;;2.10;;
10333;SDS011;5212;47.892;16.406;2023-07-20T14:14:17;2.37;;;1.80;;
10333;SDS011;5212;47.892;16.406;2023-07-20T14:16:43;2.73;;;1.90;;
10333;SDS011;5212;47.892;16.406;2023-07-20T14:19:09;3.07;;;1.90;;
10333;SDS011;5212;47.892;16.406;2023-07-20T14:21:36;3.30;;;1.90;;
10333;SDS011;5212;47.892;16.406;2023-07-20T14:24:02;2.13;;;1.93;;
10333;SDS011;5212;47.892;16.406;2023-07-20T14:26:28;3.87;;;2.17;;
10333;SDS011;5212;47.892;16.406;2023-07-20T14:28:54;2.63;;;1.83;;
10333;SDS011;5212;47.892;16.406;2023-07-20T14:31:20;2.57;;;1.83;;
10333;SDS011;5212;47.892;16.406;2023-07-20T14:33:47;2.77;;;1.87;;
10333;SDS011;5212;47.892;16.406;2023-07-20T14:36:13;3.13;;;2.10;;
10333;SDS011;5212;47.892;16.406;2023-07-20T14:38:39;2.17;;;1.73;;
10333;SDS011;5212;47.892;16.406;2023-07-20T14:41:06;2.33;;;2.03;;
10333;SDS011;5212;47.892;16.406;2023-07-20T14:43:32;2.40;;;1.97;;
10333;SDS011;5212;47.892;16.406;2023-07-20T14:45:58;2.10;;;1.90;;
10333;SDS011;5212;47.892;16.406;2023-07-20T14:48:24;2.60;;;1.90;;
10333;SDS011;5212;47.892;16.406;2023-07-20T14:50:50;3.13;;;1.90;;